^^
Paulen-Weather Station Historical Data
Daily Summary for May 21, 2022 Units:  Both    English   Metric
Daily Weekly Monthly Yearly Custom
  High: Low: Average:
Temperature: 59 °F /  15 °C 50 °F /  10 °C 53.2 °F /  11.8 °C
Dew Point: 51.8 °F /  11 °C 42.8 °F /  6 °C 47.5 °F /  8.6 °C
Humidity: 87% 65% 81%
Wind Speed: 13.7mph /  22km/h - 5.2mph /  8.4km/h
Wind Gust: 9.3mph /  15km/h - -
Wind- - NW
Pressure: 29.8 in /  1010.7 hPa 29.8 in /  1008.94 hPa -
Precipitation: 0.02 in /  0.41 mm    
Historical Graphs
 
 
Tabular Data for May 21, 2022
Time Temperature Dew Point Pressure Wind Wind Speed Wind Gust Humidity Rainfall Rate (Hourly) solar
00:04 55.4 °F /  13 °C 42.8 °F /  6 °C 29.8in /  1009.04hPa N 8.1mph /  13km/h 7.5mph /  12km/h 65% 0in /  0mm 0 W/m2
00:09 55.4 °F /  13 °C 44.6 °F /  7 °C 29.8in /  1009.11hPa NNW 3.7mph /  6km/h 3.1mph /  5km/h 67% 0in /  0mm 0 W/m2
00:14 55.4 °F /  13 °C 44.6 °F /  7 °C 29.8in /  1009.11hPa NW 4.3mph /  7km/h 3.7mph /  6km/h 68% 0in /  0mm 0 W/m2
00:19 55.4 °F /  13 °C 44.6 °F /  7 °C 29.8in /  1009.11hPa WNW 3.7mph /  6km/h 3.1mph /  5km/h 69% 0in /  0mm 0 W/m2
00:24 55.4 °F /  13 °C 44.6 °F /  7 °C 29.8in /  1009.08hPa W 3.1mph /  5km/h 3.1mph /  5km/h 70% 0in /  0mm 0 W/m2
00:29 55.4 °F /  13 °C 44.6 °F /  7 °C 29.8in /  1009.08hPa NW 5.6mph /  9km/h 4.3mph /  7km/h 71% 0in /  0mm 0 W/m2
00:34 55.4 °F /  13 °C 46.4 °F /  8 °C 29.8in /  1009.21hPa WNW 3.7mph /  6km/h 3.7mph /  6km/h 71% 0in /  0mm 0 W/m2
00:39 53.6 °F /  12 °C 46.4 °F /  8 °C 29.8in /  1009.25hPa NW 3.1mph /  5km/h 2.5mph /  4km/h 71% 0in /  0mm 0 W/m2
00:44 53.6 °F /  12 °C 44.6 °F /  7 °C 29.8in /  1009.31hPa W 3.1mph /  5km/h 3.1mph /  5km/h 70% 0in /  0mm 0 W/m2
00:49 53.6 °F /  12 °C 44.6 °F /  7 °C 29.8in /  1009.31hPa WSW 2.5mph /  4km/h 1.9mph /  3km/h 69% 0in /  0mm 0 W/m2
00:54 53.6 °F /  12 °C 44.6 °F /  7 °C 29.8in /  1009.31hPa WNW 1.9mph /  3km/h 1.9mph /  3km/h 69% 0in /  0mm 0 W/m2
00:59 53.6 °F /  12 °C 44.6 °F /  7 °C 29.8in /  1009.38hPa W 1.2mph /  2km/h 1.2mph /  2km/h 69% 0in /  0mm 0 W/m2
01:04 53.6 °F /  12 °C 44.6 °F /  7 °C 29.8in /  1009.41hPa W 1.2mph /  2km/h 0.6mph /  1km/h 69% 0in /  0mm 0 W/m2
01:09 53.6 °F /  12 °C 44.6 °F /  7 °C 29.8in /  1009.45hPa W 2.5mph /  4km/h 1.9mph /  3km/h 68% 0in /  0mm 0 W/m2
01:14 53.6 °F /  12 °C 44.6 °F /  7 °C 29.8in /  1009.45hPa W 1.2mph /  2km/h 0.6mph /  1km/h 68% 0in /  0mm 0 W/m2
01:19 53.6 °F /  12 °C 44.6 °F /  7 °C 29.8in /  1009.45hPa W 1.2mph /  2km/h 1.2mph /  2km/h 68% 0in /  0mm 0 W/m2
01:24 53.6 °F /  12 °C 44.6 °F /  7 °C 29.8in /  1009.48hPa W 1.9mph /  3km/h 1.2mph /  2km/h 68% 0in /  0mm 0 W/m2
01:29 53.6 °F /  12 °C 42.8 °F /  6 °C 29.8in /  1009.65hPa WNW 4.3mph /  7km/h 3.7mph /  6km/h 67% 0in /  0mm 0 W/m2
01:34 53.6 °F /  12 °C 44.6 °F /  7 °C 29.8in /  1009.72hPa N 4.3mph /  7km/h 3.7mph /  6km/h 68% 0in /  0mm 0 W/m2
01:39 53.6 °F /  12 °C 44.6 °F /  7 °C 29.8in /  1009.72hPa NNW 5mph /  8km/h 3.7mph /  6km/h 69% 0in /  0mm 0 W/m2
01:44 53.6 °F /  12 °C 44.6 °F /  7 °C 29.8in /  1009.72hPa NW 3.7mph /  6km/h 3.1mph /  5km/h 70% 0in /  0mm 0 W/m2
01:49 53.6 °F /  12 °C 44.6 °F /  7 °C 29.8in /  1009.75hPa W 5mph /  8km/h 3.1mph /  5km/h 71% 0in /  0mm 0 W/m2
01:54 53.6 °F /  12 °C 44.6 °F /  7 °C 29.8in /  1009.75hPa WNW 5mph /  8km/h 3.7mph /  6km/h 71% 0in /  0mm 0 W/m2
01:59 53.6 °F /  12 °C 44.6 °F /  7 °C 29.8in /  1009.72hPa W 3.7mph /  6km/h 2.5mph /  4km/h 72% 0in /  0mm 0 W/m2
02:04 53.6 °F /  12 °C 44.6 °F /  7 °C 29.8in /  1009.69hPa WNW 3.7mph /  6km/h 3.1mph /  5km/h 73% 0in /  0mm 0 W/m2
02:09 53.6 °F /  12 °C 44.6 °F /  7 °C 29.8in /  1009.55hPa WNW 3.1mph /  5km/h 3.1mph /  5km/h 75% 0in /  0mm 0 W/m2
02:14 51.8 °F /  11 °C 44.6 °F /  7 °C 29.8in /  1009.45hPa NW 6.8mph /  11km/h 3.7mph /  6km/h 75% 0in /  0mm 0 W/m2
02:19 51.8 °F /  11 °C 44.6 °F /  7 °C 29.8in /  1009.38hPa NW 4.3mph /  7km/h 3.7mph /  6km/h 75% 0in /  0mm 0 W/m2
02:24 51.8 °F /  11 °C 44.6 °F /  7 °C 29.8in /  1009.35hPa NW 8.1mph /  13km/h 5mph /  8km/h 75% 0in /  0mm 0 W/m2
02:29 51.8 °F /  11 °C 44.6 °F /  7 °C 29.8in /  1009.41hPa NW 8.1mph /  13km/h 4.3mph /  7km/h 75% 0in /  0mm 0 W/m2
02:34 51.8 °F /  11 °C 44.6 °F /  7 °C 29.8in /  1009.45hPa NNW 3.7mph /  6km/h 4.3mph /  7km/h 76% 0in /  0mm 0 W/m2
02:39 51.8 °F /  11 °C 46.4 °F /  8 °C 29.8in /  1009.52hPa NW 5.6mph /  9km/h 4.3mph /  7km/h 77% 0in /  0mm 0 W/m2
02:44 51.8 °F /  11 °C 46.4 °F /  8 °C 29.8in /  1009.52hPa NW 8.7mph /  14km/h 4.3mph /  7km/h 78% 0in /  0mm 0 W/m2
02:49 51.8 °F /  11 °C 46.4 °F /  8 °C 29.8in /  1009.52hPa NW 7.5mph /  12km/h 6.2mph /  10km/h 80% 0in /  0mm 0 W/m2
02:54 51.8 °F /  11 °C 46.4 °F /  8 °C 29.8in /  1009.52hPa NW 7.5mph /  12km/h 5mph /  8km/h 80% 0in /  0mm 0 W/m2
02:59 51.8 °F /  11 °C 46.4 °F /  8 °C 29.8in /  1009.65hPa NW 7.5mph /  12km/h 4.3mph /  7km/h 81% 0in /  0mm 0 W/m2
03:04 51.8 °F /  11 °C 46.4 °F /  8 °C 29.8in /  1009.65hPa NNW 9.3mph /  15km/h 7.5mph /  12km/h 81% 0in /  0mm 0 W/m2
03:09 51.8 °F /  11 °C 46.4 °F /  8 °C 29.8in /  1009.69hPa NNW 9.3mph /  15km/h 6.2mph /  10km/h 82% 0in /  0mm 0 W/m2
03:14 51.8 °F /  11 °C 46.4 °F /  8 °C 29.8in /  1009.75hPa NW 9.9mph /  16km/h 7.5mph /  12km/h 83% 0in /  0mm 0 W/m2
03:19 51.8 °F /  11 °C 46.4 °F /  8 °C 29.8in /  1009.72hPa WNW 7.5mph /  12km/h 3.7mph /  6km/h 85% 0in /  0mm 0 W/m2
03:24 51.8 °F /  11 °C 46.4 °F /  8 °C 29.8in /  1009.72hPa NW 8.1mph /  13km/h 6.2mph /  10km/h 85% 0in /  0mm 0 W/m2
03:29 50 °F /  10 °C 46.4 °F /  8 °C 29.8in /  1009.65hPa NNW 7.5mph /  12km/h 5.6mph /  9km/h 86% 0in /  0mm 0 W/m2
03:34 50 °F /  10 °C 46.4 °F /  8 °C 29.8in /  1009.52hPa NW 8.1mph /  13km/h 6.2mph /  10km/h 86% 0in /  0mm 0 W/m2
03:39 50 °F /  10 °C 46.4 °F /  8 °C 29.8in /  1009.45hPa NW 7.5mph /  12km/h 6.2mph /  10km/h 87% 0in /  0mm 0 W/m2
03:44 50 °F /  10 °C 46.4 °F /  8 °C 29.8in /  1009.38hPa NW 9.3mph /  15km/h 6.8mph /  11km/h 87% 0in /  0mm 0 W/m2
03:49 50 °F /  10 °C 46.4 °F /  8 °C 29.8in /  1009.38hPa NW 5.6mph /  9km/h 3.7mph /  6km/h 87% 0in /  0mm 0 W/m2
03:54 50 °F /  10 °C 46.4 °F /  8 °C 29.8in /  1009.31hPa NW 6.8mph /  11km/h 4.3mph /  7km/h 86% 0in /  0mm 0 W/m2
03:59 50 °F /  10 °C 46.4 °F /  8 °C 29.8in /  1009.28hPa NW 5.6mph /  9km/h 3.1mph /  5km/h 86% 0in /  0mm 0 W/m2
04:04 50 °F /  10 °C 46.4 °F /  8 °C 29.8in /  1009.35hPa NW 5mph /  8km/h 3.7mph /  6km/h 86% 0in /  0mm 0 W/m2
04:09 50 °F /  10 °C 46.4 °F /  8 °C 29.8in /  1009.35hPa WNW 3.1mph /  5km/h 1.9mph /  3km/h 86% 0in /  0mm 0 W/m2
04:14 50 °F /  10 °C 46.4 °F /  8 °C 29.8in /  1009.28hPa W 2.5mph /  4km/h 1.2mph /  2km/h 86% 0in /  0mm 0 W/m2
04:19 50 °F /  10 °C 46.4 °F /  8 °C 29.8in /  1009.28hPa W 1.9mph /  3km/h 1.2mph /  2km/h 86% 0in /  0mm 0 W/m2
04:24 50 °F /  10 °C 44.6 °F /  7 °C 29.8in /  1009.28hPa WNW 2.5mph /  4km/h 1.2mph /  2km/h 86% 0in /  0mm 0 W/m2
04:29 50 °F /  10 °C 44.6 °F /  7 °C 29.8in /  1009.28hPa W 1.9mph /  3km/h 1.2mph /  2km/h 86% 0in /  0mm 0 W/m2
04:34 50 °F /  10 °C 44.6 °F /  7 °C 29.8in /  1009.28hPa W 2.5mph /  4km/h 1.2mph /  2km/h 86% 0in /  0mm 0 W/m2
04:39 50 °F /  10 °C 46.4 °F /  8 °C 29.8in /  1009.31hPa WNW 3.1mph /  5km/h 3.1mph /  5km/h 86% 0in /  0mm 0 W/m2
04:44 50 °F /  10 °C 46.4 °F /  8 °C 29.8in /  1009.31hPa WNW 4.3mph /  7km/h 3.1mph /  5km/h 86% 0in /  0mm 0 W/m2
04:49 50 °F /  10 °C 46.4 °F /  8 °C 29.8in /  1009.28hPa NW 2.5mph /  4km/h 0.6mph /  1km/h 86% 0in /  0mm 0 W/m2
04:54 50 °F /  10 °C 46.4 °F /  8 °C 29.8in /  1009.18hPa W 3.1mph /  5km/h 1.9mph /  3km/h 86% 0in /  0mm 0 W/m2
04:59 50 °F /  10 °C 46.4 °F /  8 °C 29.8in /  1009.21hPa NW 2.5mph /  4km/h 3.7mph /  6km/h 86% 0in /  0mm 0 W/m2
05:04 50 °F /  10 °C 46.4 °F /  8 °C 29.8in /  1009.21hPa W 4.3mph /  7km/h 3.7mph /  6km/h 86% 0in /  0mm 0 W/m2
05:09 50 °F /  10 °C 46.4 °F /  8 °C 29.8in /  1009.21hPa W 3.1mph /  5km/h 3.1mph /  5km/h 86% 0in /  0mm 0 W/m2
05:14 50 °F /  10 °C 46.4 °F /  8 °C 29.8in /  1009.21hPa NW 3.7mph /  6km/h 1.9mph /  3km/h 86% 0in /  0mm 0 W/m2
05:19 50 °F /  10 °C 46.4 °F /  8 °C 29.8in /  1009.21hPa WNW 3.1mph /  5km/h 2.5mph /  4km/h 86% 0in /  0mm 0 W/m2
05:24 50 °F /  10 °C 46.4 °F /  8 °C 29.8in /  1009.14hPa WNW 3.1mph /  5km/h 1.9mph /  3km/h 86% 0in /  0mm 5 W/m2
05:29 50 °F /  10 °C 46.4 °F /  8 °C 29.8in /  1009.11hPa NW 3.7mph /  6km/h 3.1mph /  5km/h 85% 0in /  0mm 7 W/m2
05:34 50 °F /  10 °C 44.6 °F /  7 °C 29.8in /  1009.08hPa WNW 3.7mph /  6km/h 2.5mph /  4km/h 85% 0in /  0mm 9 W/m2
05:39 50 °F /  10 °C 46.4 °F /  8 °C 29.8in /  1009.08hPa WNW 2.5mph /  4km/h 1.2mph /  2km/h 85% 0in /  0mm 11 W/m2
05:44 50 °F /  10 °C 46.4 °F /  8 °C 29.8in /  1009.11hPa WNW 1.9mph /  3km/h 0.6mph /  1km/h 85% 0in /  0mm 12 W/m2
05:49 50 °F /  10 °C 44.6 °F /  7 °C 29.8in /  1009.08hPa NW 3.1mph /  5km/h 1.2mph /  2km/h 84% 0in /  0mm 12 W/m2
05:54 50 °F /  10 °C 44.6 °F /  7 °C 29.8in /  1009.08hPa NW 3.1mph /  5km/h 1.9mph /  3km/h 85% 0in /  0mm 14 W/m2
05:59 50 °F /  10 °C 44.6 °F /  7 °C 29.8in /  1009.08hPa W 2.5mph /  4km/h 1.2mph /  2km/h 85% 0in /  0mm 16 W/m2
06:04 50 °F /  10 °C 44.6 °F /  7 °C 29.8in /  1009.01hPa NW 2.5mph /  4km/h 0.6mph /  1km/h 85% 0in /  0mm 18 W/m2
06:09 50 °F /  10 °C 44.6 °F /  7 °C 29.8in /  1008.97hPa W 3.1mph /  5km/h 1.2mph /  2km/h 85% 0in /  0mm 21 W/m2
06:14 50 °F /  10 °C 44.6 °F /  7 °C 29.8in /  1008.94hPa W 3.1mph /  5km/h 1.9mph /  3km/h 85% 0in /  0mm 25 W/m2
06:19 50 °F /  10 °C 44.6 °F /  7 °C 29.8in /  1009.01hPa W 2.5mph /  4km/h 1.9mph /  3km/h 86% 0in /  0mm 30 W/m2
06:24 50 °F /  10 °C 44.6 °F /  7 °C 29.8in /  1009.01hPa WNW 2.5mph /  4km/h 1.2mph /  2km/h 86% 0in /  0mm 32 W/m2
06:29 50 °F /  10 °C 46.4 °F /  8 °C 29.8in /  1009.01hPa W 2.5mph /  4km/h 1.9mph /  3km/h 86% 0in /  0mm 35 W/m2
06:34 50 °F /  10 °C 46.4 °F /  8 °C 29.8in /  1009.04hPa W 1.9mph /  3km/h 0.6mph /  1km/h 87% 0in /  0mm 39 W/m2
06:39 50 °F /  10 °C 46.4 °F /  8 °C 29.8in /  1009.08hPa NNW 2.5mph /  4km/h 1.9mph /  3km/h 87% 0in /  0mm 49 W/m2
06:44 50 °F /  10 °C 46.4 °F /  8 °C 29.8in /  1009.08hPa W 3.1mph /  5km/h 2.5mph /  4km/h 87% 0in /  0mm 70 W/m2
06:49 50 °F /  10 °C 46.4 °F /  8 °C 29.8in /  1009.08hPa W 3.1mph /  5km/h 1.2mph /  2km/h 87% 0in /  0mm 77 W/m2
06:54 50 °F /  10 °C 46.4 °F /  8 °C 29.8in /  1009.11hPa W 2.5mph /  4km/h 0.6mph /  1km/h 87% 0in /  0mm 77 W/m2
06:59 50 °F /  10 °C 46.4 °F /  8 °C 29.8in /  1009.11hPa W 3.1mph /  5km/h 2.5mph /  4km/h 87% 0in /  0mm 76 W/m2
07:04 50 °F /  10 °C 46.4 °F /  8 °C 29.8in /  1009.08hPa NW 1.9mph /  3km/h 1.2mph /  2km/h 87% 0in /  0mm 72 W/m2
07:09 50 °F /  10 °C 46.4 °F /  8 °C 29.8in /  1009.04hPa NNW 3.7mph /  6km/h 2.5mph /  4km/h 87% 0in /  0mm 74 W/m2
07:14 50 °F /  10 °C 46.4 °F /  8 °C 29.8in /  1009.08hPa NW 6.2mph /  10km/h 4.3mph /  7km/h 87% 0in /  0mm 90 W/m2
07:19 50 °F /  10 °C 46.4 °F /  8 °C 29.8in /  1009.14hPa WNW 3.7mph /  6km/h 3.1mph /  5km/h 87% 0in /  0mm 98 W/m2
07:24 50 °F /  10 °C 46.4 °F /  8 °C 29.8in /  1009.18hPa NW 6.2mph /  10km/h 3.1mph /  5km/h 86% 0in /  0mm 98 W/m2
07:29 50 °F /  10 °C 46.4 °F /  8 °C 29.8in /  1009.18hPa NW 3.7mph /  6km/h 1.9mph /  3km/h 86% 0in /  0mm 100 W/m2
07:34 50 °F /  10 °C 46.4 °F /  8 °C 29.8in /  1009.18hPa NW 3.7mph /  6km/h 2.5mph /  4km/h 86% 0in /  0mm 113 W/m2
07:39 50 °F /  10 °C 46.4 °F /  8 °C 29.8in /  1009.18hPa NW 5mph /  8km/h 3.1mph /  5km/h 86% 0in /  0mm 123 W/m2
07:44 50 °F /  10 °C 46.4 °F /  8 °C 29.8in /  1009.21hPa NW 5mph /  8km/h 3.7mph /  6km/h 86% 0in /  0mm 141 W/m2
07:49 51.8 °F /  11 °C 46.4 °F /  8 °C 29.8in /  1009.18hPa NW 2.5mph /  4km/h 1.9mph /  3km/h 86% 0in /  0mm 163 W/m2
07:54 51.8 °F /  11 °C 46.4 °F /  8 °C 29.8in /  1009.18hPa NW 2.5mph /  4km/h 1.9mph /  3km/h 86% 0in /  0mm 178 W/m2
07:59 51.8 °F /  11 °C 48.2 °F /  9 °C 29.8in /  1009.18hPa NW 6.2mph /  10km/h 2.5mph /  4km/h 86% 0in /  0mm 206 W/m2
08:04 51.8 °F /  11 °C 48.2 °F /  9 °C 29.8in /  1009.18hPa NNW 4.3mph /  7km/h 2.5mph /  4km/h 86% 0in /  0mm 213 W/m2
08:09 51.8 °F /  11 °C 48.2 °F /  9 °C 29.8in /  1009.14hPa NW 3.7mph /  6km/h 2.5mph /  4km/h 86% 0in /  0mm 209 W/m2
08:14 51.8 °F /  11 °C 48.2 °F /  9 °C 29.8in /  1009.11hPa W 3.1mph /  5km/h 1.9mph /  3km/h 86% 0in /  0mm 332 W/m2
08:19 51.8 °F /  11 °C 48.2 °F /  9 °C 29.8in /  1009.08hPa WNW 4.3mph /  7km/h 2.5mph /  4km/h 85% 0in /  0mm 332 W/m2
08:24 51.8 °F /  11 °C 48.2 °F /  9 °C 29.8in /  1009.08hPa NW 5.6mph /  9km/h 3.1mph /  5km/h 85% 0in /  0mm 323 W/m2
08:29 51.8 °F /  11 °C 48.2 °F /  9 °C 29.8in /  1009.08hPa N 4.3mph /  7km/h 3.1mph /  5km/h 84% 0in /  0mm 262 W/m2
08:34 51.8 °F /  11 °C 48.2 °F /  9 °C 29.8in /  1009.04hPa NW 4.3mph /  7km/h 4.3mph /  7km/h 84% 0in /  0mm 216 W/m2
08:39 51.8 °F /  11 °C 48.2 °F /  9 °C 29.8in /  1009.08hPa W 2.5mph /  4km/h 0.6mph /  1km/h 84% 0in /  0mm 200 W/m2
08:44 51.8 °F /  11 °C 48.2 °F /  9 °C 29.8in /  1009.11hPa NNW 5.6mph /  9km/h 5mph /  8km/h 84% 0in /  0mm 244 W/m2
08:49 51.8 °F /  11 °C 48.2 °F /  9 °C 29.8in /  1009.14hPa NNW 3.7mph /  6km/h 2.5mph /  4km/h 84% 0in /  0mm 274 W/m2
08:54 53.6 °F /  12 °C 48.2 °F /  9 °C 29.8in /  1009.11hPa NW 3.1mph /  5km/h 3.1mph /  5km/h 85% 0in /  0mm 272 W/m2
08:59 53.6 °F /  12 °C 48.2 °F /  9 °C 29.8in /  1009.18hPa WNW 3.7mph /  6km/h 3.1mph /  5km/h 85% 0in /  0mm 248 W/m2
09:04 53.6 °F /  12 °C 48.2 °F /  9 °C 29.8in /  1009.18hPa WNW 3.1mph /  5km/h 1.9mph /  3km/h 85% 0in /  0mm 241 W/m2
09:09 53.6 °F /  12 °C 48.2 °F /  9 °C 29.8in /  1009.18hPa WNW 3.7mph /  6km/h 1.9mph /  3km/h 85% 0in /  0mm 214 W/m2
09:14 53.6 °F /  12 °C 48.2 °F /  9 °C 29.8in /  1009.21hPa W 2.5mph /  4km/h 2.5mph /  4km/h 84% 0in /  0mm 185 W/m2
09:19 53.6 °F /  12 °C 48.2 °F /  9 °C 29.8in /  1009.18hPa WNW 2.5mph /  4km/h 1.2mph /  2km/h 84% 0in /  0mm 171 W/m2
09:24 53.6 °F /  12 °C 48.2 °F /  9 °C 29.8in /  1009.21hPa WNW 3.1mph /  5km/h 1.9mph /  3km/h 84% 0in /  0mm 206 W/m2
09:29 53.6 °F /  12 °C 48.2 °F /  9 °C 29.8in /  1009.21hPa NW 2.5mph /  4km/h 1.9mph /  3km/h 83% 0in /  0mm 234 W/m2
09:34 53.6 °F /  12 °C 48.2 °F /  9 °C 29.8in /  1009.28hPa W 3.7mph /  6km/h 3.1mph /  5km/h 83% 0in /  0mm 244 W/m2
09:39 53.6 °F /  12 °C 48.2 °F /  9 °C 29.8in /  1009.28hPa WNW 4.3mph /  7km/h 3.7mph /  6km/h 82% 0in /  0mm 269 W/m2
09:44 53.6 °F /  12 °C 48.2 °F /  9 °C 29.8in /  1009.28hPa WNW 5.6mph /  9km/h 4.3mph /  7km/h 81% 0in /  0mm 311 W/m2
09:49 55.4 °F /  13 °C 50 °F /  10 °C 29.8in /  1009.31hPa WNW 3.1mph /  5km/h 2.5mph /  4km/h 81% 0in /  0mm 490 W/m2
09:54 55.4 °F /  13 °C 50 °F /  10 °C 29.8in /  1009.31hPa NW 4.3mph /  7km/h 3.1mph /  5km/h 80% 0in /  0mm 497 W/m2
09:59 55.4 °F /  13 °C 50 °F /  10 °C 29.8in /  1009.31hPa NNW 6.8mph /  11km/h 3.7mph /  6km/h 80% 0in /  0mm 264 W/m2
10:04 55.4 °F /  13 °C 50 °F /  10 °C 29.8in /  1009.28hPa NW 3.1mph /  5km/h 3.1mph /  5km/h 80% 0in /  0mm 353 W/m2
10:09 55.4 °F /  13 °C 50 °F /  10 °C 29.8in /  1009.28hPa W 5.6mph /  9km/h 3.7mph /  6km/h 81% 0in /  0mm 671 W/m2
10:14 55.4 °F /  13 °C 50 °F /  10 °C 29.8in /  1009.28hPa NW 6.2mph /  10km/h 4.3mph /  7km/h 81% 0in /  0mm 671 W/m2
10:19 55.4 °F /  13 °C 50 °F /  10 °C 29.8in /  1009.21hPa NNW 5mph /  8km/h 4.3mph /  7km/h 79% 0in /  0mm 628 W/m2
10:24 57.2 °F /  14 °C 50 °F /  10 °C 29.8in /  1009.18hPa NNW 5.6mph /  9km/h 3.7mph /  6km/h 78% 0in /  0mm 643 W/m2
10:29 57.2 °F /  14 °C 50 °F /  10 °C 29.8in /  1009.18hPa NW 9.9mph /  16km/h 6.8mph /  11km/h 76% 0in /  0mm 694 W/m2
10:34 57.2 °F /  14 °C 50 °F /  10 °C 29.8in /  1009.25hPa NNW 6.8mph /  11km/h 7.5mph /  12km/h 76% 0in /  0mm 742 W/m2
10:39 57.2 °F /  14 °C 50 °F /  10 °C 29.8in /  1009.28hPa NNW 11.2mph /  18km/h 9.3mph /  15km/h 75% 0in /  0mm 809 W/m2
10:44 57.2 °F /  14 °C 50 °F /  10 °C 29.8in /  1009.31hPa N 11.2mph /  18km/h 8.1mph /  13km/h 76% 0in /  0mm 847 W/m2
10:49 57.2 °F /  14 °C 50 °F /  10 °C 29.8in /  1009.31hPa N 8.7mph /  14km/h 6.2mph /  10km/h 77% 0in /  0mm 844 W/m2
10:54 57.2 °F /  14 °C 50 °F /  10 °C 29.8in /  1009.25hPa NNW 8.1mph /  13km/h 8.1mph /  13km/h 77% 0in /  0mm 810 W/m2
10:59 57.2 °F /  14 °C 50 °F /  10 °C 29.8in /  1009.25hPa NNW 5mph /  8km/h 4.3mph /  7km/h 75% 0in /  0mm 821 W/m2
11:04 59 °F /  15 °C 50 °F /  10 °C 29.8in /  1009.28hPa N 5.6mph /  9km/h 6.2mph /  10km/h 75% 0in /  0mm 872 W/m2
11:09 59 °F /  15 °C 50 °F /  10 °C 29.8in /  1009.31hPa NNW 8.1mph /  13km/h 6.2mph /  10km/h 73% 0in /  0mm 889 W/m2
11:14 59 °F /  15 °C 50 °F /  10 °C 29.8in /  1009.31hPa NNW 9.9mph /  16km/h 7.5mph /  12km/h 74% 0in /  0mm 271 W/m2
11:19 57.2 °F /  14 °C 50 °F /  10 °C 29.8in /  1009.31hPa NNW 11.2mph /  18km/h 8.1mph /  13km/h 77% 0in /  0mm 870 W/m2
11:24 57.2 °F /  14 °C 50 °F /  10 °C 29.8in /  1009.28hPa N 12.4mph /  20km/h 8.7mph /  14km/h 80% 0in /  0mm 944 W/m2
11:29 57.2 °F /  14 °C 50 °F /  10 °C 29.8in /  1009.31hPa NNW 10.6mph /  17km/h 8.7mph /  14km/h 79% 0in /  0mm 288 W/m2
11:34 57.2 °F /  14 °C 50 °F /  10 °C 29.8in /  1009.35hPa N 8.7mph /  14km/h 5.6mph /  9km/h 79% 0in /  0mm 121 W/m2
11:39 55.4 °F /  13 °C 50 °F /  10 °C 29.8in /  1009.35hPa N 9.3mph /  15km/h 6.8mph /  11km/h 79% 0in /  0mm 74 W/m2
11:44 55.4 °F /  13 °C 50 °F /  10 °C 29.8in /  1009.52hPa NNW 9.3mph /  15km/h 7.5mph /  12km/h 80% 0in /  0mm 67 W/m2
11:49 55.4 °F /  13 °C 50 °F /  10 °C 29.8in /  1009.55hPa N 8.1mph /  13km/h 6.2mph /  10km/h 82% 0in /  0mm 79 W/m2
11:54 55.4 °F /  13 °C 50 °F /  10 °C 29.8in /  1009.55hPa N 5mph /  8km/h 4.3mph /  7km/h 83% 0in /  0mm 84 W/m2
11:59 55.4 °F /  13 °C 50 °F /  10 °C 29.8in /  1009.55hPa NNW 5.6mph /  9km/h 5mph /  8km/h 83% 0in /  0mm 83 W/m2
12:04 55.4 °F /  13 °C 50 °F /  10 °C 29.8in /  1009.62hPa NNW 5.6mph /  9km/h 4.3mph /  7km/h 83% 0in /  0mm 97 W/m2
12:09 55.4 °F /  13 °C 50 °F /  10 °C 29.8in /  1009.62hPa W 4.3mph /  7km/h 4.3mph /  7km/h 83% 0in /  0mm 174 W/m2
12:14 55.4 °F /  13 °C 50 °F /  10 °C 29.8in /  1009.69hPa N 5.6mph /  9km/h 4.3mph /  7km/h 83% 0in /  0mm 271 W/m2
12:19 55.4 °F /  13 °C 50 °F /  10 °C 29.8in /  1009.65hPa NNW 8.1mph /  13km/h 6.2mph /  10km/h 83% 0in /  0mm 264 W/m2
12:24 55.4 °F /  13 °C 50 °F /  10 °C 29.8in /  1009.62hPa NNW 7.5mph /  12km/h 5mph /  8km/h 82% 0in /  0mm 167 W/m2
12:29 55.4 °F /  13 °C 50 °F /  10 °C 29.8in /  1009.65hPa NNW 6.8mph /  11km/h 5.6mph /  9km/h 81% 0in /  0mm 120 W/m2
12:34 55.4 °F /  13 °C 50 °F /  10 °C 29.8in /  1009.75hPa NW 5.6mph /  9km/h 5mph /  8km/h 80% 0in /  0mm 83 W/m2
12:39 55.4 °F /  13 °C 50 °F /  10 °C 29.8in /  1009.85hPa WNW 7.5mph /  12km/h 3.1mph /  5km/h 80% 0in /  0mm 76 W/m2
12:44 55.4 °F /  13 °C 50 °F /  10 °C 29.8in /  1009.96hPa WNW 3.1mph /  5km/h 2.5mph /  4km/h 81% 0.01in /  0.2mm 67 W/m2
12:49 55.4 °F /  13 °C 50 °F /  10 °C 29.8in /  1009.99hPa NNW 6.2mph /  10km/h 5.6mph /  9km/h 82% 0.01in /  0.2mm 79 W/m2
12:54 55.4 °F /  13 °C 50 °F /  10 °C 29.8in /  1010.09hPa NW 6.2mph /  10km/h 5.6mph /  9km/h 83% 0.01in /  0.2mm 120 W/m2
12:59 55.4 °F /  13 °C 50 °F /  10 °C 29.8in /  1010.09hPa NW 6.2mph /  10km/h 3.7mph /  6km/h 84% 0.01in /  0.2mm 162 W/m2
13:04 53.6 °F /  12 °C 50 °F /  10 °C 29.8in /  1010.19hPa NNW 3.1mph /  5km/h 1.9mph /  3km/h 85% 0.01in /  0.2mm 165 W/m2
13:09 53.6 °F /  12 °C 50 °F /  10 °C 29.8in /  1010.26hPa W 2.5mph /  4km/h 1.2mph /  2km/h 86% 0.01in /  0.2mm 141 W/m2
13:14 53.6 °F /  12 °C 50 °F /  10 °C 29.8in /  1010.3hPa NW 5mph /  8km/h 3.1mph /  5km/h 86% 0.02in /  0.41mm 102 W/m2
13:19 53.6 °F /  12 °C 50 °F /  10 °C 29.8in /  1010.33hPa NW 3.7mph /  6km/h 3.1mph /  5km/h 86% 0.02in /  0.41mm 134 W/m2
13:24 53.6 °F /  12 °C 50 °F /  10 °C 29.8in /  1010.36hPa SW 3.7mph /  6km/h 3.1mph /  5km/h 86% 0.02in /  0.41mm 199 W/m2
13:29 53.6 °F /  12 °C 50 °F /  10 °C 29.8in /  1010.3hPa WSW 2.5mph /  4km/h 3.1mph /  5km/h 87% 0.02in /  0.41mm 274 W/m2
13:34 53.6 °F /  12 °C 50 °F /  10 °C 29.8in /  1010.23hPa N 4.3mph /  7km/h 3.7mph /  6km/h 87% 0.02in /  0.41mm 304 W/m2
13:39 55.4 °F /  13 °C 51.8 °F /  11 °C 29.8in /  1010.33hPa N 5mph /  8km/h 4.3mph /  7km/h 87% 0.02in /  0.41mm 304 W/m2
13:44 55.4 °F /  13 °C 51.8 °F /  11 °C 29.8in /  1010.36hPa N 5.6mph /  9km/h 5mph /  8km/h 87% 0.02in /  0.41mm 279 W/m2
13:49 55.4 °F /  13 °C 51.8 °F /  11 °C 29.8in /  1010.33hPa N 7.5mph /  12km/h 6.2mph /  10km/h 87% 0.01in /  0.2mm 373 W/m2
13:54 55.4 °F /  13 °C 51.8 °F /  11 °C 29.8in /  1010.3hPa NNW 7.5mph /  12km/h 5mph /  8km/h 86% 0.01in /  0.2mm 387 W/m2
13:59 55.4 °F /  13 °C 51.8 °F /  11 °C 29.8in /  1010.33hPa NW 6.8mph /  11km/h 5mph /  8km/h 86% 0.01in /  0.2mm 737 W/m2
14:04 57.2 °F /  14 °C 51.8 °F /  11 °C 29.8in /  1010.4hPa N 7.5mph /  12km/h 6.2mph /  10km/h 85% 0.01in /  0.2mm 461 W/m2
14:09 57.2 °F /  14 °C 51.8 °F /  11 °C 29.8in /  1010.4hPa NNW 8.1mph /  13km/h 5.6mph /  9km/h 84% 0.01in /  0.2mm 462 W/m2
14:14 57.2 °F /  14 °C 51.8 °F /  11 °C 29.8in /  1010.4hPa NNW 7.5mph /  12km/h 5.6mph /  9km/h 83% 0.01in /  0.2mm 485 W/m2
14:19 57.2 °F /  14 °C 51.8 °F /  11 °C 29.8in /  1010.36hPa N 8.7mph /  14km/h 8.7mph /  14km/h 81% 0in /  0mm 413 W/m2
14:24 57.2 °F /  14 °C 50 °F /  10 °C 29.8in /  1010.36hPa N 11.2mph /  18km/h 8.7mph /  14km/h 81% 0in /  0mm 420 W/m2
14:29 57.2 °F /  14 °C 50 °F /  10 °C 29.8in /  1010.4hPa N 9.9mph /  16km/h 8.1mph /  13km/h 81% 0in /  0mm 388 W/m2
14:34 55.4 °F /  13 °C 50 °F /  10 °C 29.8in /  1010.43hPa N 8.7mph /  14km/h 8.1mph /  13km/h 81% 0in /  0mm 297 W/m2
14:39 55.4 °F /  13 °C 50 °F /  10 °C 29.8in /  1010.53hPa N 11.2mph /  18km/h 8.1mph /  13km/h 81% 0in /  0mm 482 W/m2
14:44 55.4 °F /  13 °C 50 °F /  10 °C 29.8in /  1010.57hPa NNW 13.7mph /  22km/h 8.1mph /  13km/h 82% 0in /  0mm 482 W/m2
14:49 55.4 °F /  13 °C 50 °F /  10 °C 29.8in /  1010.57hPa NNW 9.3mph /  15km/h 6.2mph /  10km/h 82% 0in /  0mm 374 W/m2
14:54 57.2 °F /  14 °C 50 °F /  10 °C 29.8in /  1010.67hPa NNW 9.9mph /  16km/h 8.1mph /  13km/h 81% 0in /  0mm 520 W/m2
14:59 57.2 °F /  14 °C 50 °F /  10 °C 29.8in /  1010.7hPa N 10.6mph /  17km/h 8.1mph /  13km/h 80% 0in /  0mm 976 W/m2
Compliments of Weather Underground - 2 mb